Time;durP1;ratioP1;P1;durP2;ratioP2;P2;SDS_P1;SDS_P2;PMS_P1;PMS_P2;Temp;Humidity;BMP_temperature;BMP_pressure;BME280_temperature;BME280_humidity;BME280_pressure;Samples;Min_cycle;Max_cycle;Signal;HPM_P1;HPM_P2
2021/05/24 00:01:09;;;;;;;4.78;2.25;;;;;;;8.68;91.94;101207.69;6222507;28;20046;-74
2021/05/24 00:04:10;;;;;;;6.07;1.98;;;;;;;8.64;91.55;101196.47;6222353;28;20092;-74
2021/05/24 00:07:11;;;;;;;4.20;2.38;;;;;;;8.61;91.72;101191.34;6222734;28;20050;-73
2021/05/24 00:10:16;;;;;;;6.30;2.05;;;;;;;8.56;92.30;101195.91;6222269;28;20111;-74
2021/05/24 00:13:19;;;;;;;3.83;1.55;;;;;;;8.53;90.46;101196.00;6222627;28;20046;-74
2021/05/24 00:16:20;;;;;;;7.97;2.55;;;;;;;8.52;91.04;101188.22;6222574;28;20053;-74
2021/05/24 00:19:20;;;;;;;2.85;1.30;;;;;;;8.53;90.50;101182.91;6222458;28;20058;-74
2021/05/24 00:22:21;;;;;;;4.78;1.40;;;;;;;8.55;90.12;101186.34;6222153;28;20081;-73
2021/05/24 00:25:23;;;;;;;5.93;1.83;;;;;;;8.56;88.57;101187.19;6222170;28;20494;-74
2021/05/24 00:28:25;;;;;;;6.18;1.63;;;;;;;8.60;88.79;101178.31;6222348;28;20061;-74
2021/05/24 00:31:26;;;;;;;7.93;1.55;;;;;;;8.58;89.00;101170.53;6221960;28;20045;-74
2021/05/24 00:34:27;;;;;;;3.80;1.70;;;;;;;8.55;89.64;101167.16;6222144;28;20045;-73
2021/05/24 00:37:28;;;;;;;7.68;1.90;;;;;;;8.53;90.24;101169.81;6222150;28;20125;-74
2021/05/24 00:40:30;;;;;;;7.93;1.90;;;;;;;8.50;89.72;101162.09;6222095;28;20102;-74
2021/05/24 00:43:31;;;;;;;7.72;1.17;;;;;;;8.48;89.48;101158.66;6221706;28;20085;-74
2021/05/24 00:46:32;;;;;;;7.10;1.48;;;;;;;8.50;88.85;101156.00;6223143;28;20143;-74
2021/05/24 00:49:33;;;;;;;6.30;1.65;;;;;;;8.49;88.88;101151.66;6226959;28;20074;-74
2021/05/24 00:52:35;;;;;;;3.95;1.73;;;;;;;8.47;89.08;101143.00;6227083;28;20053;-74
2021/05/24 00:55:37;;;;;;;4.60;1.20;;;;;;;8.46;88.53;101139.53;6226921;28;20050;-75
2021/05/24 00:58:38;;;;;;;4.85;1.88;;;;;;;8.50;88.96;101140.28;6226551;28;20413;-74
2021/05/24 01:01:39;;;;;;;2.35;1.20;;;;;;;8.49;89.12;101142.03;6226565;28;20050;-74
2021/05/24 01:04:40;;;;;;;5.95;1.48;;;;;;;8.45;89.07;101140.47;6226707;28;20050;-74
2021/05/24 01:07:41;;;;;;;10.70;1.38;;;;;;;8.46;88.66;101134.31;6226688;28;20062;-74
2021/05/24 01:10:44;;;;;;;2.97;1.10;;;;;;;8.43;88.19;101138.81;6232368;28;20057;-73
2021/05/24 01:13:45;;;;;;;6.18;1.40;;;;;;;8.39;88.79;101132.81;6250619;28;20057;-74
2021/05/24 01:16:50;;;;;;;3.50;1.48;;;;;;;8.36;89.11;101122.44;6237240;28;20077;-73
2021/05/24 01:19:51;;;;;;;4.88;1.65;;;;;;;8.35;89.28;101132.03;6226343;28;20054;-74
2021/05/24 01:22:58;;;;;;;4.55;1.25;;;;;;;8.36;89.88;101125.06;6225826;28;20100;-73
2021/05/24 01:25:59;;;;;;;2.10;1.30;;;;;;;8.29;89.63;101113.09;6226244;28;20104;-74
2021/05/24 01:29:00;;;;;;;3.28;1.50;;;;;;;8.28;89.84;101114.03;6225885;28;20049;-74
2021/05/24 01:32:01;;;;;;;8.88;1.40;;;;;;;8.28;88.59;101106.16;6235321;28;20048;-74
2021/05/24 01:35:02;;;;;;;4.53;1.55;;;;;;;8.25;88.75;101109.75;6234502;28;20049;-75
2021/05/24 01:38:06;;;;;;;3.28;1.40;;;;;;;8.22;89.11;101101.16;6226142;28;20556;-75
2021/05/24 01:41:09;;;;;;;7.50;2.63;;;;;;;8.23;89.67;101102.88;6225910;28;20136;-74
2021/05/24 01:44:10;;;;;;;3.08;1.40;;;;;;;8.23;89.47;101090.63;6225788;28;20421;-75
2021/05/24 01:47:10;;;;;;;6.30;1.50;;;;;;;8.22;90.14;101095.91;6225769;28;20052;-75
2021/05/24 01:50:12;;;;;;;4.93;1.60;;;;;;;8.22;89.92;101096.78;6225738;28;20050;-75
2021/05/24 01:53:14;;;;;;;3.13;1.50;;;;;;;8.23;89.35;101095.03;6225446;28;20046;-75
2021/05/24 01:56:15;;;;;;;8.85;2.00;;;;;;;8.20;90.28;101097.75;6225429;28;20057;-73
2021/05/24 01:59:16;;;;;;;3.53;1.42;;;;;;;8.20;89.53;101093.34;6224490;28;20058;-74
2021/05/24 02:02:17;;;;;;;10.60;1.58;;;;;;;8.24;89.89;101099.34;6225230;28;20046;-75
2021/05/24 02:05:19;;;;;;;1.90;1.38;;;;;;;8.21;89.95;101097.69;6225476;28;20524;-74
2021/05/24 02:08:21;;;;;;;3.05;1.42;;;;;;;8.15;89.94;101095.31;6225298;28;20054;-73
2021/05/24 02:11:22;;;;;;;3.90;1.60;;;;;;;8.11;90.11;101091.94;6225206;28;20057;-75
2021/05/24 02:14:24;;;;;;;4.43;1.83;;;;;;;8.11;90.77;101091.09;6224942;28;20520;-76
2021/05/24 02:17:25;;;;;;;8.70;1.50;;;;;;;8.07;90.90;101079.88;6225167;28;20188;-75
2021/05/24 02:20:27;;;;;;;2.95;1.60;;;;;;;8.05;91.30;101081.72;6224713;28;20054;-75
2021/05/24 02:23:29;;;;;;;5.13;1.60;;;;;;;8.01;92.77;101076.66;6224557;28;20057;-75
2021/05/24 02:26:30;;;;;;;3.50;1.33;;;;;;;8.00;92.12;101078.41;6224872;28;20054;-75
2021/05/24 02:29:31;;;;;;;8.70;1.65;;;;;;;7.94;92.94;101075.16;6224931;28;20057;-73
2021/05/24 02:32:32;;;;;;;3.65;1.35;;;;;;;7.94;93.30;101075.16;6224457;28;20042;-76
2021/05/24 02:35:33;;;;;;;3.53;1.23;;;;;;;7.88;93.05;101078.88;6224798;28;20077;-75
2021/05/24 02:38:35;;;;;;;8.98;2.38;;;;;;;7.86;93.28;101081.53;6224436;28;20053;-75
2021/05/24 02:41:36;;;;;;;4.78;1.70;;;;;;;7.82;92.80;101074.72;6224289;28;20077;-75
2021/05/24 02:44:37;;;;;;;4.97;1.60;;;;;;;7.84;93.27;101082.50;6224214;28;20061;-76
2021/05/24 02:47:38;;;;;;;5.00;1.35;;;;;;;7.93;90.87;101086.53;6223875;28;20046;-76
2021/05/24 02:50:39;;;;;;;2.63;1.58;;;;;;;7.88;91.86;101081.47;6224261;28;20473;-75
2021/05/24 02:53:41;;;;;;;5.97;1.60;;;;;;;7.86;93.21;101081.53;6224012;28;20570;-75
2021/05/24 02:56:42;;;;;;;2.53;1.50;;;;;;;7.89;93.34;101076.19;6224254;28;20046;-75
2021/05/24 02:59:42;;;;;;;5.15;1.50;;;;;;;7.91;93.20;101081.38;6223891;28;20133;-75
2021/05/24 03:02:46;;;;;;;7.32;1.65;;;;;;;7.96;92.91;101079.44;6224023;28;20053;-75
2021/05/24 03:05:47;;;;;;;2.15;1.40;;;;;;;7.93;92.95;101074.31;6223825;28;20137;-75
2021/05/24 03:08:49;;;;;;;3.15;1.42;;;;;;;7.91;92.51;101065.69;6223844;28;20060;-75
2021/05/24 03:11:50;;;;;;;2.35;1.33;;;;;;;7.96;91.62;101068.13;6244244;22;20497;-76
2021/05/24 03:14:51;;;;;;;3.85;1.40;;;;;;;7.92;92.01;101063.91;6220472;28;20088;-76
2021/05/24 03:17:53;;;;;;;3.83;1.67;;;;;;;7.95;91.09;101058.53;6215277;28;20394;-76
2021/05/24 03:20:54;;;;;;;4.40;1.50;;;;;;;7.95;91.83;101053.31;6223193;28;20049;-76
2021/05/24 03:23:55;;;;;;;7.20;1.70;;;;;;;7.97;91.71;101049.72;6223466;28;20046;-76
2021/05/24 03:26:56;;;;;;;2.60;1.60;;;;;;;8.02;91.91;101046.94;6223703;28;20050;-76
2021/05/24 03:29:57;;;;;;;6.03;1.33;;;;;;;7.99;91.78;101042.66;6223471;28;20580;-76
2021/05/24 03:32:58;;;;;;;3.70;1.60;;;;;;;8.00;92.50;101054.88;6214983;28;20129;-76
2021/05/24 03:35:59;;;;;;;4.60;1.30;;;;;;;8.02;92.24;101045.19;6223440;28;20049;-76
2021/05/24 03:39:00;;;;;;;3.03;1.60;;;;;;;8.05;90.97;101047.69;6223199;28;20050;-75
2021/05/24 03:42:01;;;;;;;2.80;1.20;;;;;;;8.14;91.25;101036.88;6222980;28;20053;-75
2021/05/24 03:45:03;;;;;;;2.17;1.05;;;;;;;8.16;90.51;101026.31;6223097;28;20467;-76
2021/05/24 03:48:05;;;;;;;3.22;1.20;;;;;;;8.19;90.17;101030.59;6223295;28;20088;-75
2021/05/24 03:51:07;;;;;;;1.95;1.20;;;;;;;8.25;89.53;101035.59;6223078;28;20054;-76
2021/05/24 03:54:09;;;;;;;2.67;1.40;;;;;;;8.21;89.91;101027.00;6222628;28;20548;-76
2021/05/24 03:57:11;;;;;;;3.42;1.17;;;;;;;8.29;89.63;101018.84;6223063;28;20076;-76
2021/05/24 04:00:13;;;;;;;2.10;1.10;;;;;;;8.28;90.06;101012.75;6222610;28;20053;-76
2021/05/24 04:03:14;;;;;;;3.88;1.30;;;;;;;8.32;89.44;101014.34;6222590;28;20045;-76
2021/05/24 04:06:16;;;;;;;3.83;1.50;;;;;;;8.39;89.74;101007.13;6222607;28;20100;-76
2021/05/24 04:09:18;;;;;;;2.08;1.23;;;;;;;8.36;89.52;101012.47;6222689;28;20063;-76
2021/05/24 04:12:19;;;;;;;3.20;1.05;;;;;;;8.38;90.82;101019.38;6222533;28;20046;-76
2021/05/24 04:15:20;;;;;;;3.35;1.00;;;;;;;8.36;90.08;101013.34;6223105;28;20489;-76
2021/05/24 04:18:22;;;;;;;6.25;1.27;;;;;;;8.37;90.04;101009.81;6222675;28;20103;-76
2021/05/24 04:21:23;;;;;;;3.92;1.20;;;;;;;8.43;89.43;101011.31;6221808;28;20084;-76
2021/05/24 04:24:24;;;;;;;5.72;1.23;;;;;;;8.48;89.55;101009.38;6222286;28;20050;-76
2021/05/24 04:27:25;;;;;;;1.92;1.20;;;;;;;8.56;89.08;101009.91;6222481;28;20053;-76
2021/05/24 04:30:26;;;;;;;3.20;1.30;;;;;;;8.56;89.65;101011.69;6222279;28;20049;-75
2021/05/24 04:33:27;;;;;;;3.33;1.13;;;;;;;8.63;89.64;101011.38;6222395;28;20053;-76
2021/05/24 04:36:28;;;;;;;2.17;1.20;;;;;;;8.60;89.84;101011.50;6222346;28;20057;-76
2021/05/24 04:39:29;;;;;;;2.92;1.08;;;;;;;8.69;89.32;101014.66;6222193;28;20045;-76
2021/05/24 04:42:30;;;;;;;3.85;1.20;;;;;;;8.74;90.89;101012.69;6222023;28;20046;-76
2021/05/24 04:45:31;;;;;;;3.22;1.20;;;;;;;8.80;89.34;101010.66;6222208;28;20416;-76
2021/05/24 04:48:34;;;;;;;4.18;1.20;;;;;;;8.85;89.05;101010.47;6222190;28;20107;-76
2021/05/24 04:51:35;;;;;;;5.90;1.20;;;;;;;8.85;89.53;101013.09;6221972;28;20077;-76
2021/05/24 04:54:36;;;;;;;1.80;1.00;;;;;;;8.78;90.24;101004.66;6222061;28;20429;-76
2021/05/24 04:57:37;;;;;;;5.05;1.30;;;;;;;8.88;91.25;101005.97;6221985;28;20046;-76
2021/05/24 05:00:39;;;;;;;3.72;1.20;;;;;;;8.93;90.56;101013.63;6222036;28;20053;-76
2021/05/24 05:03:39;;;;;;;10.73;1.20;;;;;;;9.01;90.57;101015.94;6221918;28;20551;-76
2021/05/24 05:06:40;;;;;;;1.90;1.02;;;;;;;9.09;90.33;101014.69;6221841;28;20077;-76
2021/05/24 05:09:42;;;;;;;3.22;1.08;;;;;;;9.28;89.55;101004.25;6221755;28;20061;-76
2021/05/24 05:12:43;;;;;;;4.72;1.30;;;;;;;9.39;89.58;100995.91;6221659;28;20053;-76
2021/05/24 05:15:45;;;;;;;8.00;1.77;;;;;;;9.46;89.87;100997.34;6222023;28;20050;-76
2021/05/24 05:18:46;;;;;;;2.63;1.20;;;;;;;9.59;89.75;100995.88;6221693;28;20057;-76
2021/05/24 05:21:48;;;;;;;1.85;0.90;;;;;;;9.62;89.49;100985.22;6221589;28;20046;-76
2021/05/24 05:24:50;;;;;;;2.88;1.30;;;;;;;9.79;87.43;100989.72;6221488;28;20475;-75
2021/05/24 05:27:51;;;;;;;4.82;1.30;;;;;;;9.87;86.98;100992.00;6221494;28;20050;-75
2021/05/24 05:30:52;;;;;;;4.43;1.10;;;;;;;9.97;87.55;100984.53;6207917;28;20042;-79
2021/05/24 05:33:53;;;;;;;3.55;1.02;;;;;;;10.07;88.83;100988.41;6198456;28;20417;-78
2021/05/24 05:36:54;;;;;;;1.88;0.90;;;;;;;10.26;89.30;100984.00;6202228;28;20086;-78
2021/05/24 05:39:57;;;;;;;3.35;1.23;;;;;;;10.49;88.43;100985.56;6201666;28;20054;-78
2021/05/24 05:42:58;;;;;;;4.28;1.95;;;;;;;10.64;87.23;100981.31;6216169;28;20038;-79
2021/05/24 05:45:59;;;;;;;4.47;0.90;;;;;;;10.73;86.37;100970.31;6201809;28;20062;-75
2021/05/24 05:49:00;;;;;;;1.45;0.80;;;;;;;10.76;85.59;100969.31;6201661;28;20054;-76
2021/05/24 05:52:02;;;;;;;3.22;0.95;;;;;;;10.82;85.55;100964.59;6201290;28;20054;-76
2021/05/24 05:55:05;;;;;;;3.13;0.95;;;;;;;10.92;85.14;100978.97;6201374;28;20050;-76
2021/05/24 05:58:06;;;;;;;4.13;1.00;;;;;;;10.97;85.97;100959.47;6201342;28;20054;-75
2021/05/24 06:01:08;;;;;;;4.38;0.90;;;;;;;11.02;85.06;100962.72;6208766;28;20440;-76
2021/05/24 06:04:08;;;;;;;3.45;0.90;;;;;;;11.14;82.96;100962.94;6224802;28;20049;-76
2021/05/24 06:07:09;;;;;;;5.28;0.90;;;;;;;11.32;83.05;100958.50;6201284;28;20113;-76
2021/05/24 06:10:13;;;;;;;1.35;0.85;;;;;;;11.33;82.91;100962.81;6214810;28;20454;-76
2021/05/24 06:13:14;;;;;;;1.02;0.70;;;;;;;11.40;81.32;100963.38;6225435;28;20041;-76
2021/05/24 06:16:15;;;;;;;2.33;1.38;;;;;;;11.49;80.48;100964.63;6225139;28;20076;-76
2021/05/24 06:19:16;;;;;;;7.22;1.13;;;;;;;11.60;82.13;100965.75;6223805;28;20080;-75
2021/05/24 06:22:17;;;;;;;1.98;0.80;;;;;;;11.60;81.89;100971.03;6217986;28;20050;-76
2021/05/24 06:25:19;;;;;;;4.90;1.85;;;;;;;11.58;81.14;100969.41;6225286;28;20057;-76
2021/05/24 06:28:20;;;;;;;2.42;1.17;;;;;;;11.58;83.34;100957.09;6218811;28;20061;-76
2021/05/24 06:31:21;;;;;;;1.80;0.73;;;;;;;11.73;80.93;100955.41;6224825;28;20042;-76
2021/05/24 06:34:22;;;;;;;2.78;0.68;;;;;;;11.73;81.33;100958.06;6224649;28;20049;-76
2021/05/24 06:37:23;;;;;;;1.35;0.63;;;;;;;11.68;81.39;100966.19;6216569;28;20062;-76
2021/05/24 06:40:24;;;;;;;6.30;1.02;;;;;;;11.91;79.58;100957.06;6224815;28;20472;-76
2021/05/24 06:43:25;;;;;;;2.75;0.85;;;;;;;11.92;81.16;100966.66;6224393;28;20386;-76
2021/05/24 06:46:26;;;;;;;1.67;0.80;;;;;;;11.93;81.70;100964.88;6224486;28;20133;-76
2021/05/24 06:49:27;;;;;;;3.50;1.52;;;;;;;12.09;81.34;100963.09;6224498;28;20053;-76
2021/05/24 06:52:28;;;;;;;4.88;1.00;;;;;;;12.24;78.27;100955.25;6224379;28;20046;-76
2021/05/24 06:55:29;;;;;;;2.20;0.90;;;;;;;12.36;78.59;100952.78;6224250;28;20706;-76
2021/05/24 06:58:30;;;;;;;8.00;1.35;;;;;;;12.35;79.50;100951.09;6224263;28;20054;-76
2021/05/24 07:01:32;;;;;;;1.88;0.80;;;;;;;12.50;81.05;100949.34;6224062;28;20046;-76
2021/05/24 07:04:32;;;;;;;3.20;1.00;;;;;;;12.69;77.89;100944.69;6223725;28;20133;-76
2021/05/24 07:07:34;;;;;;;5.65;0.90;;;;;;;12.84;78.63;100935.00;6224027;28;20085;-77
2021/05/24 07:10:36;;;;;;;5.55;1.00;;;;;;;12.99;76.21;100930.63;6223778;28;20057;-76
2021/05/24 07:13:37;;;;;;;5.55;1.08;;;;;;;13.07;77.04;100930.97;6224022;28;20050;-76
2021/05/24 07:16:38;;;;;;;2.20;0.80;;;;;;;13.29;73.19;100930.56;6223822;28;20084;-76
2021/05/24 07:19:39;;;;;;;2.25;0.70;;;;;;;13.37;76.04;100927.44;6223984;28;20065;-76
2021/05/24 07:22:39;;;;;;;2.80;0.60;;;;;;;13.43;77.52;100932.34;6223481;28;20046;-76
2021/05/24 07:25:41;;;;;;;4.45;0.90;;;;;;;13.46;75.66;100926.88;6224014;28;20080;-76
2021/05/24 07:28:42;;;;;;;2.38;0.60;;;;;;;13.42;74.12;100917.44;6223630;28;20127;-76
2021/05/24 07:31:43;;;;;;;4.72;0.82;;;;;;;13.57;75.45;100908.53;6223374;28;20077;-76
2021/05/24 07:34:44;;;;;;;3.88;0.60;;;;;;;13.51;74.05;100902.81;6223240;28;20082;-76
2021/05/24 07:37:44;;;;;;;2.20;0.90;;;;;;;13.47;73.75;100901.31;6223755;28;20050;-76
2021/05/24 07:40:46;;;;;;;4.05;0.80;;;;;;;13.46;74.54;100903.13;6223402;28;20050;-76
2021/05/24 07:43:47;;;;;;;2.95;0.90;;;;;;;13.40;75.04;100893.78;6222934;28;20137;-76
2021/05/24 07:46:48;;;;;;;3.60;0.90;;;;;;;13.39;75.56;100897.34;6223264;28;20521;-76
2021/05/24 07:49:49;;;;;;;2.72;1.23;;;;;;;13.32;76.06;100893.41;6222626;28;20484;-76
2021/05/24 07:52:49;;;;;;;1.92;0.70;;;;;;;13.31;75.96;100891.72;6222939;28;20415;-76
2021/05/24 07:55:51;;;;;;;3.95;0.95;;;;;;;13.47;76.81;100891.59;6221776;28;20046;-76
2021/05/24 07:58:52;;;;;;;5.60;1.08;;;;;;;13.59;74.93;100887.34;6209344;28;20045;-77
2021/05/24 08:01:53;;;;;;;2.97;0.75;;;;;;;13.73;74.70;100881.19;6212937;28;20109;-76
2021/05/24 08:04:54;;;;;;;6.45;0.90;;;;;;;13.99;71.02;100882.09;6209852;28;20497;-77
2021/05/24 08:07:54;;;;;;;2.22;0.90;;;;;;;13.96;70.62;100867.31;6209967;28;20046;-76
2021/05/24 08:10:56;;;;;;;4.22;0.90;;;;;;;14.19;70.85;100873.72;6208063;28;20054;-76
2021/05/24 08:13:58;;;;;;;3.83;1.08;;;;;;;14.28;67.76;100874.91;6210032;28;20046;-76
2021/05/24 08:16:59;;;;;;;3.72;0.70;;;;;;;14.24;69.11;100866.34;6207726;28;20062;-77
2021/05/24 08:20:00;;;;;;;4.43;0.63;;;;;;;14.45;64.78;100856.13;6200634;28;20058;-76
2021/05/24 08:23:01;;;;;;;3.42;0.68;;;;;;;14.33;67.04;100852.50;6198235;28;20529;-76
2021/05/24 08:26:05;;;;;;;3.47;0.73;;;;;;;14.55;63.77;100862.50;6198287;28;20053;-76
2021/05/24 08:29:06;;;;;;;4.60;0.73;;;;;;;14.63;62.13;100859.34;6198265;28;20053;-77
2021/05/24 08:32:07;;;;;;;5.18;0.82;;;;;;;14.62;66.86;100855.84;6198055;28;20494;-76
2021/05/24 08:35:09;;;;;;;3.15;1.02;;;;;;;14.77;62.35;100853.13;6197966;28;20188;-76
2021/05/24 08:38:10;;;;;;;5.07;0.70;;;;;;;14.89;60.61;100849.59;6198213;28;20065;-76
2021/05/24 08:41:13;;;;;;;2.08;0.50;;;;;;;15.07;60.93;100840.38;6198229;28;20396;-76
2021/05/24 08:44:15;;;;;;;3.10;0.88;;;;;;;15.13;60.10;100837.31;6197775;28;20125;-76
2021/05/24 08:47:18;;;;;;;2.33;0.63;;;;;;;15.23;59.44;100834.84;6215700;28;20057;-76
2021/05/24 08:50:19;;;;;;;1.75;0.60;;;;;;;15.46;58.44;100828.72;6214112;28;20433;-76
2021/05/24 08:53:20;;;;;;;2.97;0.70;;;;;;;15.59;57.02;100830.50;6220361;28;20095;-76
2021/05/24 08:56:22;;;;;;;2.22;0.60;;;;;;;15.53;57.33;100822.97;6198219;28;20104;-76
2021/05/24 08:59:22;;;;;;;2.55;0.63;;;;;;;15.48;59.65;100810.91;6197692;28;20053;-75
2021/05/24 09:02:23;;;;;;;3.10;1.05;;;;;;;15.70;56.89;100804.94;6197561;28;20051;-76
2021/05/24 09:05:29;;;;;;;2.72;0.75;;;;;;;15.88;56.98;100794.75;6197598;28;20054;-76
2021/05/24 09:08:34;;;;;;;1.65;0.80;;;;;;;15.89;56.65;100790.31;6200502;28;20413;-76
2021/05/24 09:11:36;;;;;;;2.05;0.50;;;;;;;15.91;58.33;100776.00;6202731;28;20053;-76
2021/05/24 09:14:37;;;;;;;2.05;0.50;;;;;;;15.92;58.56;100784.78;6202133;28;20050;-76
2021/05/24 09:17:47;;;;;;;4.13;0.70;;;;;;;15.96;55.43;100780.94;6202465;28;20050;-76
2021/05/24 09:20:50;;;;;;;2.78;0.70;;;;;;;16.06;56.54;100779.28;6201777;28;20061;-76
2021/05/24 09:23:51;;;;;;;2.40;0.60;;;;;;;16.32;53.79;100784.41;6202606;28;20053;-76
2021/05/24 09:26:53;;;;;;;1.83;0.60;;;;;;;16.26;51.71;100776.91;6202225;28;20055;-77
2021/05/24 09:29:57;;;;;;;4.18;0.50;;;;;;;15.86;54.53;100772.00;6202114;28;20046;-76
2021/05/24 09:33:12;;;;;;;2.13;0.70;;;;;;;15.77;56.51;100781.47;6201839;28;20140;-76
2021/05/24 09:36:15;;;;;;;1.05;0.40;;;;;;;15.91;54.35;100777.81;6202456;28;20043;-76
2021/05/24 09:39:15;;;;;;;3.22;0.50;;;;;;;16.01;54.56;100775.28;6201699;28;20097;-76
2021/05/24 09:42:18;;;;;;;4.07;0.82;;;;;;;16.12;53.67;100768.19;6201721;28;20042;-76
2021/05/24 09:45:21;;;;;;;3.58;0.50;;;;;;;16.15;53.46;100767.97;6201318;28;20464;-77
2021/05/24 09:48:31;;;;;;;2.72;0.60;;;;;;;16.22;51.89;100765.72;6201670;28;20456;-76
2021/05/24 09:51:36;;;;;;;3.53;0.65;;;;;;;16.46;52.46;100760.31;6201664;28;20050;-77
2021/05/24 09:54:38;;;;;;;1.77;0.70;;;;;;;16.62;51.14;100762.59;6202964;28;20047;-78
2021/05/24 09:57:54;;;;;;;1.90;0.63;;;;;;;16.70;50.27;100762.84;6202432;28;20090;-76
2021/05/24 10:01:03;;;;;;;2.50;0.38;;;;;;;16.51;48.68;100757.31;6201551;28;20093;-76
2021/05/24 10:04:04;;;;;;;6.40;0.60;;;;;;;16.43;49.61;100745.47;6201640;28;20484;-78
2021/05/24 10:07:06;;;;;;;2.05;0.40;;;;;;;16.51;49.60;100750.19;6201316;28;20096;-74
2021/05/24 10:10:08;;;;;;;6.85;0.90;;;;;;;16.84;49.71;100737.91;6200904;28;20135;-76
2021/05/24 10:13:10;;;;;;;5.50;0.70;;;;;;;16.97;50.33;100733.31;6201784;28;20092;-77
2021/05/24 10:16:14;;;;;;;2.25;0.40;;;;;;;17.00;49.15;100714.47;6202460;28;20050;-77
2021/05/24 10:19:17;;;;;;;2.80;0.43;;;;;;;17.02;46.53;100709.03;6200869;28;20089;-77
2021/05/24 10:22:18;;;;;;;2.10;0.40;;;;;;;17.16;46.42;100714.91;6201220;28;20054;-77
2021/05/24 10:25:20;;;;;;;2.25;0.50;;;;;;;17.28;47.11;100699.78;6201450;28;20416;-76
2021/05/24 10:28:23;;;;;;;2.22;0.40;;;;;;;17.27;46.29;100691.97;6200897;28;20465;-76
2021/05/24 10:31:25;;;;;;;1.55;0.60;;;;;;;17.04;47.90;100677.91;6200837;28;20503;-76
2021/05/24 10:34:34;;;;;;;0.75;0.30;;;;;;;17.25;45.25;100686.75;6200233;28;20050;-76
2021/05/24 10:37:40;;;;;;;2.22;0.50;;;;;;;17.48;46.01;100676.88;6200431;28;20054;-76
2021/05/24 10:40:44;;;;;;;3.60;0.32;;;;;;;17.54;42.72;100670.22;6201270;28;20077;-79
2021/05/24 10:43:48;;;;;;;4.25;0.43;;;;;;;17.83;41.39;100662.47;6201323;28;20077;-76
2021/05/24 10:46:50;;;;;;;2.55;0.50;;;;;;;18.24;40.51;100670.38;6205262;28;20053;-76
2021/05/24 10:50:04;;;;;;;7.45;0.98;;;;;;;18.42;38.58;100675.09;6216390;28;20042;-76
2021/05/24 10:53:23;;;;;;;2.90;0.50;;;;;;;18.71;39.27;100676.06;6216145;28;20485;-77
2021/05/24 10:56:24;;;;;;;0.82;0.35;;;;;;;18.78;39.19;100657.72;6225255;28;20042;-77
2021/05/24 11:00:00;;;;;;;2.47;0.60;;;;;;;18.97;38.98;100643.59;6224336;28;20057;-75
2021/05/24 11:03:08;;;;;;;17.10;0.60;;;;;;;19.26;41.02;100652.47;6202848;28;20043;-77
2021/05/24 11:06:11;;;;;;;2.85;0.68;;;;;;;19.55;39.72;100630.28;6200372;28;20516;-77
2021/05/24 11:09:12;;;;;;;4.80;0.60;;;;;;;19.61;40.54;100634.22;6200311;28;20481;-76
2021/05/24 11:12:13;;;;;;;0.98;0.43;;;;;;;19.74;36.37;100627.59;6200650;28;20052;-77
2021/05/24 11:15:16;;;;;;;6.30;0.80;;;;;;;19.51;38.59;100626.19;6199567;28;20146;-76
2021/05/24 11:18:20;;;;;;;3.95;0.65;;;;;;;19.45;39.76;100624.13;6199900;28;20097;-77
2021/05/24 11:21:27;;;;;;;2.15;0.60;;;;;;;19.64;37.50;100621.44;6217058;28;20049;-77
2021/05/24 11:24:37;;;;;;;2.33;0.90;;;;;;;19.95;39.43;100613.22;6213923;28;20046;-77
2021/05/24 11:27:37;;;;;;;3.22;0.90;;;;;;;20.28;36.32;100611.81;6221764;28;20045;-78
2021/05/24 11:30:38;;;;;;;2.45;0.60;;;;;;;20.45;38.86;100596.84;6212696;28;20068;-78
2021/05/24 11:33:50;;;;;;;5.47;0.70;;;;;;;20.78;37.49;100614.94;6215739;28;20048;-76
2021/05/24 11:36:52;;;;;;;3.38;0.60;;;;;;;21.06;34.83;100590.81;6223577;28;20058;-76
2021/05/24 11:39:54;;;;;;;3.15;0.60;;;;;;;20.61;35.07;100599.72;6215219;28;20054;-77
2021/05/24 11:43:08;;;;;;;6.43;1.13;;;;;;;20.25;39.13;100601.44;6215259;28;20213;-77
2021/05/24 11:46:11;;;;;;;4.32;1.27;;;;;;;20.70;39.77;100584.63;6221106;28;20484;-77
2021/05/24 11:49:14;;;;;;;4.65;1.63;;;;;;;20.31;38.64;100576.00;6212836;28;20173;-77
2021/05/24 11:52:18;;;;;;;2.47;1.20;;;;;;;20.39;39.24;100579.56;6216409;28;20060;-77
2021/05/24 11:55:19;;;;;;;2.83;0.90;;;;;;;20.35;41.59;100578.22;6215082;28;20060;-77
2021/05/24 11:58:19;;;;;;;9.45;1.40;;;;;;;20.29;40.72;100570.78;6215531;28;20050;-77
2021/05/24 12:01:20;;;;;;;3.25;0.70;;;;;;;20.52;40.01;100565.91;6223797;28;20049;-77
2021/05/24 12:04:24;;;;;;;3.20;0.90;;;;;;;21.13;36.16;100558.97;6223194;28;20077;-77
2021/05/24 12:07:25;;;;;;;5.10;2.85;;;;;;;21.61;35.80;100553.16;6215121;28;20460;-77
2021/05/24 12:10:26;;;;;;;2.45;1.00;;;;;;;22.06;37.11;100552.06;6223508;28;20057;-77
2021/05/24 12:13:27;;;;;;;4.10;1.00;;;;;;;21.63;33.76;100551.19;6223556;28;20050;-77
2021/05/24 12:16:30;;;;;;;1.90;0.75;;;;;;;21.09;37.72;100552.28;6223548;28;20099;-78
2021/05/24 12:19:32;;;;;;;1.80;0.70;;;;;;;21.03;35.35;100557.25;6223270;28;20065;-77
2021/05/24 12:22:38;;;;;;;5.13;0.90;;;;;;;20.91;38.00;100547.78;6214646;28;20552;-77
2021/05/24 12:25:43;;;;;;;3.55;0.70;;;;;;;20.51;41.15;100557.06;6223371;28;20084;-78
2021/05/24 12:28:44;;;;;;;3.38;1.15;;;;;;;20.70;40.19;100548.06;6223047;28;20136;-77
2021/05/24 12:31:46;;;;;;;2.25;0.68;;;;;;;20.71;40.78;100551.56;6223449;28;20513;-78
2021/05/24 12:34:48;;;;;;;0.95;0.50;;;;;;;20.32;40.99;100546.47;6223250;28;20077;-77
2021/05/24 12:37:55;;;;;;;1.10;0.50;;;;;;;21.01;39.05;100545.00;6223081;28;20073;-78
2021/05/24 12:40:59;;;;;;;3.47;0.57;;;;;;;21.81;38.12;100555.63;6222594;28;20045;-77
2021/05/24 12:44:02;;;;;;;1.95;0.73;;;;;;;21.92;33.89;100541.97;6228508;28;20099;-78
2021/05/24 12:47:13;;;;;;;0.95;0.65;;;;;;;21.03;34.97;100556.41;6229884;28;20050;-78
2021/05/24 12:50:17;;;;;;;1.20;0.52;;;;;;;20.36;37.86;100539.84;6230481;28;20054;-77
2021/05/24 12:53:20;;;;;;;1.90;0.60;;;;;;;19.98;38.50;100539.09;6230649;28;20049;-77
2021/05/24 12:56:22;;;;;;;2.65;0.77;;;;;;;20.13;36.63;100533.25;6228316;28;20054;-78
2021/05/24 12:59:24;;;;;;;4.57;0.70;;;;;;;20.74;34.76;100524.56;6223160;28;20089;-77
2021/05/24 13:02:26;;;;;;;2.97;0.50;;;;;;;20.68;35.37;100525.19;6222003;28;20046;-77
2021/05/24 13:05:29;;;;;;;0.73;0.40;;;;;;;20.74;38.52;100520.06;6230544;28;20104;-77
2021/05/24 13:08:30;;;;;;;2.55;0.70;;;;;;;20.49;38.15;100526.19;6230111;28;20096;-77
2021/05/24 13:11:48;;;;;;;1.67;0.60;;;;;;;20.20;38.22;100523.66;6227986;28;20553;-77
2021/05/24 13:14:54;;;;;;;2.80;0.80;;;;;;;19.85;38.16;100521.72;6221763;28;20047;-76
2021/05/24 13:17:57;;;;;;;1.30;0.55;;;;;;;19.74;36.80;100517.44;6229359;28;20049;-76
2021/05/24 13:21:13;;;;;;;1.83;0.93;;;;;;;19.55;37.08;100514.81;6228719;28;20046;-76
2021/05/24 13:24:26;;;;;;;5.30;0.70;;;;;;;19.47;38.24;100507.53;6229543;28;20069;-79
2021/05/24 13:27:46;;;;;;;3.20;0.70;;;;;;;19.32;38.49;100507.16;6227394;28;20046;-79
2021/05/24 13:30:49;;;;;;;1.90;0.80;;;;;;;19.28;36.74;100497.75;6230236;28;20050;-79
2021/05/24 13:33:53;;;;;;;3.85;0.50;;;;;;;19.19;37.96;100496.78;6221977;28;20037;-79
2021/05/24 13:36:54;;;;;;;4.43;0.65;;;;;;;19.31;37.45;100497.50;6230446;28;20107;-78
2021/05/24 13:40:00;;;;;;;2.75;0.70;;;;;;;19.45;37.23;100493.50;6229970;28;20050;-79
2021/05/24 13:43:01;;;;;;;4.15;0.85;;;;;;;19.39;36.87;100488.75;6230181;28;20049;-79
2021/05/24 13:46:01;;;;;;;3.78;0.68;;;;;;;19.23;39.13;100492.88;6230133;28;20477;-78
2021/05/24 13:49:03;;;;;;;4.85;0.80;;;;;;;19.20;38.57;100484.31;6229736;28;20136;-79
2021/05/24 13:52:05;;;;;;;3.88;1.20;;;;;;;19.16;40.34;100489.09;6229883;28;20092;-78
2021/05/24 13:55:09;;;;;;;1.25;0.68;;;;;;;19.01;37.67;100490.53;6217966;28;20057;-78
2021/05/24 13:58:10;;;;;;;2.33;0.80;;;;;;;18.89;40.03;100492.50;6218006;28;20050;-78
2021/05/24 14:01:11;;;;;;;6.85;0.77;;;;;;;18.83;38.42;100493.06;6226301;28;20050;-78
2021/05/24 14:04:14;;;;;;;1.17;0.47;;;;;;;18.80;37.96;100487.19;6216889;28;20065;-79
2021/05/24 14:07:16;;;;;;;17.27;2.42;;;;;;;18.66;41.00;100489.25;6225956;28;20413;-79
2021/05/24 14:10:17;;;;;;;2.70;0.77;;;;;;;18.77;37.46;100484.81;6225656;28;20085;-79
2021/05/24 14:13:20;;;;;;;1.70;0.85;;;;;;;18.58;39.45;100482.97;6225823;28;20559;-79